createdAt,value
2017-09-23T00:00:38.678Z,92.7
2017-09-23T00:01:40.151Z,92.5
2017-09-23T00:02:41.986Z,93.2
2017-09-23T00:03:43.656Z,92.8
2017-09-23T00:04:45.130Z,93.2
2017-09-23T00:05:46.507Z,93.2
2017-09-23T00:06:47.872Z,93.3
2017-09-23T00:07:49.255Z,93.0
2017-09-23T00:08:50.645Z,93.1
2017-09-23T00:09:52.001Z,93.3
2017-09-23T00:10:53.495Z,93.4
2017-09-23T00:11:55.193Z,93.6
2017-09-23T00:12:56.597Z,93.7
2017-09-23T00:13:58.054Z,93.5
2017-09-23T00:14:59.522Z,93.7
2017-09-23T00:16:00.882Z,93.3
2017-09-23T00:17:02.335Z,93.4
2017-09-23T00:18:03.707Z,93.6
2017-09-23T00:19:05.089Z,93.5
2017-09-23T00:20:06.490Z,94.2
2017-09-23T00:21:07.910Z,94.5
2017-09-23T00:22:09.296Z,93.8
2017-09-23T00:23:10.797Z,93.5
2017-09-23T00:24:12.282Z,94.2
2017-09-23T00:25:13.666Z,94.4
2017-09-23T00:26:15.074Z,93.9
2017-09-23T00:27:16.506Z,94.4
2017-09-23T00:28:17.905Z,93.9
2017-09-23T00:29:19.399Z,94.4
2017-09-23T00:30:21.081Z,94.5
2017-09-23T00:31:22.733Z,93.9
2017-09-23T00:32:24.141Z,93.5
2017-09-23T00:33:25.718Z,94.4
2017-09-23T00:34:27.122Z,94.1
2017-09-23T00:35:28.736Z,93.7
2017-09-23T00:36:30.195Z,93.8
2017-09-23T00:37:31.646Z,94.0
2017-09-23T00:38:33.109Z,94.5
2017-09-23T00:39:34.591Z,93.6
2017-09-23T00:40:36.647Z,94.1
2017-09-23T00:41:38.693Z,93.8
2017-09-23T00:42:40.408Z,94.0
2017-09-23T00:43:41.992Z,94.0
2017-09-23T00:44:43.384Z,93.8
2017-09-23T00:45:45.174Z,93.9
2017-09-23T00:46:46.597Z,93.8
2017-09-23T00:47:47.976Z,93.8
2017-09-23T00:48:49.373Z,93.9
2017-09-23T00:49:50.762Z,93.7
2017-09-23T00:50:52.189Z,93.7
2017-09-23T00:51:53.618Z,93.7
2017-09-23T00:52:55.039Z,94.8
2017-09-23T00:53:56.813Z,93.7
2017-09-23T00:54:58.225Z,94.4
2017-09-23T00:55:59.634Z,94.1
2017-09-23T00:57:01.056Z,94.6
2017-09-23T00:58:02.480Z,94.5
2017-09-23T00:59:03.879Z,94.4
2017-09-23T01:00:05.290Z,93.8
2017-09-23T01:01:07.015Z,94.4
2017-09-23T01:02:08.608Z,94.5
2017-09-23T01:03:10.354Z,93.9
2017-09-23T01:04:11.788Z,93.9
2017-09-23T01:05:13.598Z,94.4
2017-09-23T01:06:15.285Z,93.8
2017-09-23T01:07:16.711Z,94.4
2017-09-23T01:08:18.098Z,94.3
2017-09-23T01:10:00.478Z,93.9
2017-09-23T01:11:01.870Z,93.5
2017-09-23T01:12:03.248Z,93.7
2017-09-23T01:13:04.624Z,93.8
2017-09-23T01:14:06.009Z,94.0
2017-09-23T01:15:07.383Z,94.0
2017-09-23T01:16:08.760Z,94.1
2017-09-23T01:17:10.127Z,93.5
2017-09-23T01:18:11.502Z,93.6
2017-09-23T01:19:13.125Z,93.7
2017-09-23T01:20:14.522Z,94.1
2017-09-23T01:21:15.902Z,94.1
2017-09-23T01:22:17.289Z,94.1
2017-09-23T01:23:18.655Z,93.5
2017-09-23T01:24:20.029Z,93.3
2017-09-23T01:25:21.395Z,93.7
2017-09-23T01:26:23.180Z,94.1
2017-09-23T01:27:24.934Z,94.1
2017-09-23T01:28:26.802Z,93.4
2017-09-23T01:29:28.480Z,94.0
2017-09-23T01:30:29.870Z,94.0
2017-09-23T01:31:31.326Z,94.1
2017-09-23T01:32:32.753Z,94.1
2017-09-23T01:33:34.127Z,94.0
2017-09-23T01:34:35.552Z,94.0
2017-09-23T01:35:36.940Z,94.2
2017-09-23T01:36:38.334Z,93.7
2017-09-23T01:37:39.754Z,93.9
2017-09-23T01:38:41.169Z,93.7
2017-09-23T01:39:42.634Z,93.7
2017-09-23T01:40:44.083Z,94.0
2017-09-23T01:42:26.442Z,94.0
2017-09-23T01:43:27.821Z,94.4
2017-09-23T01:44:29.188Z,94.4
2017-09-23T01:45:30.562Z,93.9
2017-09-23T01:46:31.932Z,94.2
2017-09-23T01:47:33.304Z,94.2
2017-09-23T01:48:34.683Z,94.0
2017-09-23T01:49:36.048Z,93.8
2017-09-23T01:50:37.429Z,93.8
2017-09-23T01:51:38.796Z,93.5
2017-09-23T01:52:40.173Z,93.5
2017-09-23T01:53:41.548Z,94.1
2017-09-23T01:54:42.932Z,94.1
2017-09-23T01:55:44.312Z,93.9
2017-09-23T01:56:45.680Z,94.0
2017-09-23T01:58:28.076Z,94.0
2017-09-23T01:59:29.437Z,93.9
2017-09-23T02:00:30.813Z,94.2
2017-09-23T02:01:32.186Z,94.3
2017-09-23T02:02:33.561Z,94.2
2017-09-23T02:03:34.929Z,94.1
2017-09-23T02:04:36.342Z,93.9
2017-09-23T02:05:37.703Z,93.9
2017-09-23T02:06:39.082Z,94.0
2017-09-23T02:07:40.466Z,93.8
2017-09-23T02:08:41.824Z,93.8
2017-09-23T02:09:43.271Z,94.0
2017-09-23T02:10:44.747Z,93.7
2017-09-23T02:11:46.218Z,93.7
2017-09-23T02:12:47.709Z,93.7
2017-09-23T02:13:49.145Z,93.7
2017-09-23T02:14:50.920Z,93.6
2017-09-23T02:15:52.517Z,94.3
2017-09-23T02:16:54.027Z,94.1
2017-09-23T02:17:55.423Z,93.4
2017-09-23T02:18:56.883Z,93.7
2017-09-23T02:19:58.275Z,94.2
2017-09-23T02:20:59.790Z,94.3
2017-09-23T02:22:01.203Z,94.3
2017-09-23T02:23:02.615Z,94.0
2017-09-23T02:24:04.206Z,93.4
2017-09-23T02:25:05.619Z,94.3
2017-09-23T02:26:07.077Z,94.2
2017-09-23T02:27:08.494Z,93.9
2017-09-23T02:28:09.968Z,93.7
2017-09-23T02:29:11.607Z,94.1
2017-09-23T02:30:12.995Z,94.2
2017-09-23T02:31:14.424Z,94.1
2017-09-23T02:32:15.956Z,94.1
2017-09-23T02:33:17.661Z,94.1
2017-09-23T02:34:19.190Z,93.9
2017-09-23T02:35:20.769Z,94.1
2017-09-23T02:36:22.557Z,94.2
2017-09-23T02:37:24.105Z,93.5
2017-09-23T02:38:25.552Z,93.4
2017-09-23T02:39:26.976Z,93.5
2017-09-23T02:40:28.571Z,93.5
2017-09-23T02:41:30.003Z,94.1
2017-09-23T02:42:31.703Z,94.1
2017-09-23T02:43:33.286Z,93.4
2017-09-23T02:44:35.132Z,93.5
2017-09-23T02:45:36.637Z,94.4
2017-09-23T02:46:38.147Z,94.3
2017-09-23T02:47:39.642Z,93.7
2017-09-23T02:48:41.134Z,94.1
2017-09-23T02:49:42.520Z,94.1
2017-09-23T02:50:43.927Z,94.3
2017-09-23T02:51:45.480Z,94.1
2017-09-23T02:52:46.957Z,94.0
2017-09-23T02:53:48.364Z,94.2
2017-09-23T02:54:49.917Z,94.0
2017-09-23T02:55:51.352Z,93.6
2017-09-23T02:56:52.843Z,94.2
2017-09-23T02:57:54.248Z,94.3
2017-09-23T02:58:55.790Z,94.1
2017-09-23T02:59:57.244Z,93.4
2017-09-23T03:00:58.715Z,93.5
2017-09-23T03:02:00.243Z,93.5
2017-09-23T03:03:01.632Z,93.4
2017-09-23T03:04:03.098Z,93.9
2017-09-23T03:05:04.695Z,93.6
2017-09-23T03:06:06.075Z,93.5
2017-09-23T03:07:07.706Z,94.2
2017-09-23T03:08:09.342Z,93.6
2017-09-23T03:09:10.918Z,93.6
2017-09-23T03:10:12.288Z,93.6
2017-09-23T03:11:13.829Z,94.2
2017-09-23T03:12:15.300Z,93.7
2017-09-23T03:13:16.823Z,93.4
2017-09-23T03:14:18.382Z,93.4
2017-09-23T03:15:19.869Z,93.5
2017-09-23T03:16:21.338Z,93.6
2017-09-23T03:17:22.762Z,93.6
2017-09-23T03:18:24.185Z,93.6
2017-09-23T03:19:25.679Z,94.2
2017-09-23T03:20:27.143Z,94.0
2017-09-23T03:21:28.692Z,94.3
2017-09-23T03:22:30.081Z,94.0
2017-09-23T03:23:31.463Z,93.6
2017-09-23T03:24:32.890Z,93.3
2017-09-23T03:25:34.428Z,93.3
2017-09-23T03:26:36.045Z,94.1
2017-09-23T03:27:37.629Z,93.3
2017-09-23T03:28:39.193Z,93.4
2017-09-23T03:29:40.947Z,93.7
2017-09-23T03:30:42.458Z,94.2
2017-09-23T03:31:43.934Z,94.1
2017-09-23T03:32:45.644Z,93.8
2017-09-23T03:33:47.234Z,94.3
2017-09-23T03:34:48.610Z,93.9
2017-09-23T03:35:50.003Z,93.5
2017-09-23T03:36:51.437Z,93.9
2017-09-23T03:37:52.831Z,93.7
2017-09-23T03:38:54.231Z,93.5
2017-09-23T03:39:55.712Z,94.5
2017-09-23T03:40:57.297Z,93.9
2017-09-23T03:41:59.302Z,94.4
2017-09-23T03:43:00.782Z,93.5
2017-09-23T03:44:02.359Z,93.8
2017-09-23T03:45:03.747Z,94.0
2017-09-23T03:46:05.176Z,94.0
2017-09-23T03:47:06.603Z,94.0
2017-09-23T03:48:08.032Z,94.2
2017-09-23T03:49:09.415Z,93.7
2017-09-23T03:50:10.994Z,93.5
2017-09-23T03:51:12.576Z,94.2
2017-09-23T03:52:14.182Z,94.2
2017-09-23T03:53:15.644Z,93.5
2017-09-23T03:54:17.047Z,93.5
2017-09-23T03:55:18.615Z,94.2
2017-09-23T03:56:20.424Z,93.5
2017-09-23T03:57:21.894Z,94.2
2017-09-23T03:58:23.522Z,94.1
2017-09-23T03:59:25.243Z,93.8
2017-09-23T04:00:26.712Z,93.9
2017-09-23T04:01:28.125Z,93.8
2017-09-23T04:02:29.530Z,93.8
2017-09-23T04:03:31.149Z,93.8
2017-09-23T04:04:32.790Z,94.0
2017-09-23T04:05:34.210Z,94.0
2017-09-23T04:06:35.779Z,94.4
2017-09-23T04:07:37.445Z,93.6
2017-09-23T04:08:38.879Z,93.7
2017-09-23T04:09:40.337Z,93.7
2017-09-23T04:10:41.764Z,93.3
2017-09-23T04:11:43.433Z,93.9
2017-09-23T04:12:44.881Z,94.2
2017-09-23T04:13:46.555Z,93.9
2017-09-23T04:14:48.027Z,94.0
2017-09-23T04:15:49.653Z,94.0
2017-09-23T04:16:51.146Z,94.0
2017-09-23T04:17:52.900Z,93.8
2017-09-23T04:18:54.653Z,93.8
2017-09-23T04:19:56.355Z,93.9
2017-09-23T04:20:57.785Z,94.6
2017-09-23T04:21:59.481Z,94.4
2017-09-23T04:23:01.146Z,95.2
2017-09-23T04:24:03.007Z,94.6
2017-09-23T04:25:04.763Z,94.7
2017-09-23T04:26:06.219Z,94.6
2017-09-23T04:27:07.977Z,95.1
2017-09-23T04:28:09.432Z,94.7
2017-09-23T04:29:11.096Z,95.2
2017-09-23T04:30:12.553Z,95.0
2017-09-23T04:31:14.147Z,95.1
2017-09-23T04:32:15.663Z,94.9
2017-09-23T04:33:17.356Z,95.2
2017-09-23T04:34:18.760Z,95.3
2017-09-23T04:35:20.337Z,95.1
2017-09-23T04:36:21.958Z,95.3
2017-09-23T04:37:23.336Z,94.7
2017-09-23T04:38:24.764Z,94.9
2017-09-23T04:39:26.191Z,95.2
2017-09-23T04:40:27.609Z,95.1
2017-09-23T04:41:29.045Z,94.8
2017-09-23T04:42:30.843Z,94.7
2017-09-23T04:43:32.221Z,95.2
2017-09-23T04:44:33.990Z,95.0
2017-09-23T04:45:35.468Z,94.9
2017-09-23T04:46:36.914Z,94.8
2017-09-23T04:47:38.413Z,95.1
2017-09-23T04:48:39.884Z,95.1
2017-09-23T04:49:41.822Z,94.2
2017-09-23T04:50:43.694Z,94.5
2017-09-23T04:51:46.240Z,94.7
2017-09-23T04:52:48.118Z,94.2
2017-09-23T04:53:49.925Z,93.8
2017-09-23T04:54:51.708Z,94.5
2017-09-23T04:55:53.604Z,94.5
2017-09-23T04:56:55.035Z,95.1
2017-09-23T04:57:56.490Z,94.7
2017-09-23T04:58:58.015Z,94.3
2017-09-23T04:59:59.444Z,94.3
2017-09-23T05:01:01.149Z,94.2
2017-09-23T05:02:02.724Z,94.6
2017-09-23T05:03:04.164Z,94.1
2017-09-23T05:04:05.913Z,94.4
2017-09-23T05:05:07.706Z,95.2
2017-09-23T05:06:09.389Z,95.2
2017-09-23T05:07:11.237Z,95.0
2017-09-23T05:08:12.695Z,94.9
2017-09-23T05:09:14.629Z,95.0
2017-09-23T05:10:16.225Z,95.1
2017-09-23T05:11:17.691Z,94.7
2017-09-23T05:12:19.193Z,95.3
2017-09-23T05:13:20.972Z,95.6
2017-09-23T05:14:22.494Z,95.5
2017-09-23T05:15:23.902Z,95.8
2017-09-23T05:16:25.522Z,95.7
2017-09-23T05:17:27.195Z,95.9
2017-09-23T05:18:28.700Z,96.0
2017-09-23T05:19:30.107Z,96.2
2017-09-23T05:20:31.543Z,96.6
2017-09-23T05:21:32.953Z,96.1
2017-09-23T05:22:34.415Z,95.8
2017-09-23T05:23:35.942Z,95.7
2017-09-23T05:24:37.374Z,96.0
2017-09-23T05:25:38.786Z,96.0
2017-09-23T05:26:40.435Z,95.9
2017-09-23T05:27:42.266Z,95.9
2017-09-23T05:28:43.888Z,96.1
2017-09-23T05:29:45.841Z,96.1
2017-09-23T05:30:47.621Z,96.1
2017-09-23T05:31:49.061Z,96.3
2017-09-23T05:32:50.479Z,96.2
2017-09-23T05:33:52.015Z,95.8
2017-09-23T05:34:54.048Z,95.5
2017-09-23T05:35:56.122Z,95.7
2017-09-23T05:36:58.217Z,95.8
2017-09-23T05:38:00.233Z,95.6
2017-09-23T05:39:01.685Z,95.6
2017-09-23T05:40:03.108Z,95.8
2017-09-23T05:41:05.076Z,95.6
2017-09-23T05:42:06.567Z,95.1
2017-09-23T05:43:08.054Z,95.8
2017-09-23T05:44:10.145Z,95.5
2017-09-23T05:45:11.578Z,95.8
2017-09-23T05:46:13.676Z,95.7
2017-09-23T05:47:15.346Z,95.5
2017-09-23T05:48:16.768Z,95.4
2017-09-23T05:49:18.807Z,95.0
2017-09-23T05:50:20.262Z,95.2
2017-09-23T05:51:22.324Z,95.2
2017-09-23T05:52:24.475Z,94.7
2017-09-23T05:53:25.972Z,95.3
2017-09-23T05:54:28.051Z,95.2
2017-09-23T05:55:30.096Z,95.3
2017-09-23T05:56:31.643Z,95.0
2017-09-23T05:57:33.435Z,95.4
2017-09-23T05:58:34.863Z,95.4
2017-09-23T05:59:36.299Z,95.0
2017-09-23T06:00:37.754Z,94.9
2017-09-23T06:01:39.282Z,95.3
2017-09-23T06:02:40.909Z,94.6
2017-09-23T06:03:42.937Z,95.0
2017-09-23T06:04:44.366Z,95.4
2017-09-23T06:05:45.812Z,95.0
2017-09-23T06:06:47.251Z,95.0
2017-09-23T06:07:48.675Z,94.7
2017-09-23T06:08:50.090Z,94.7
2017-09-23T06:09:51.963Z,94.7
2017-09-23T06:10:53.944Z,95.0
2017-09-23T06:11:55.461Z,95.4
2017-09-23T06:12:56.876Z,95.2
2017-09-23T06:13:58.257Z,94.2
2017-09-23T06:14:59.704Z,94.1
2017-09-23T06:16:01.188Z,94.2
2017-09-23T06:17:02.593Z,94.5
2017-09-23T06:18:03.990Z,94.2
2017-09-23T06:19:06.161Z,94.5
2017-09-23T06:20:07.604Z,94.4
2017-09-23T06:21:09.000Z,94.1
2017-09-23T06:22:10.419Z,94.1
2017-09-23T06:23:11.978Z,93.8
2017-09-23T06:24:13.608Z,93.9
2017-09-23T06:25:14.998Z,94.1
2017-09-23T06:26:16.469Z,94.3
2017-09-23T06:27:17.885Z,94.5
2017-09-23T06:28:19.326Z,94.2
2017-09-23T06:29:21.306Z,94.1
2017-09-23T06:30:23.420Z,93.8
2017-09-23T06:31:24.899Z,94.6
2017-09-23T06:32:26.317Z,94.2
2017-09-23T06:33:27.737Z,94.0
2017-09-23T06:34:29.158Z,94.6
2017-09-23T06:35:30.601Z,94.1
2017-09-23T06:36:32.053Z,94.1
2017-09-23T06:37:33.499Z,93.9
2017-09-23T06:38:35.236Z,93.8
2017-09-23T06:39:36.756Z,94.0
2017-09-23T06:40:38.686Z,94.2
2017-09-23T06:41:40.127Z,94.3
2017-09-23T06:42:41.793Z,93.5
2017-09-23T06:43:43.254Z,93.7
2017-09-23T06:44:44.687Z,94.4
2017-09-23T06:45:46.184Z,93.7
2017-09-23T06:46:47.592Z,94.2
2017-09-23T06:47:49.043Z,94.1
2017-09-23T06:48:50.457Z,94.1
2017-09-23T06:49:51.914Z,93.7
2017-09-23T06:50:53.842Z,93.6
2017-09-23T06:51:55.987Z,93.6
2017-09-23T06:52:58.000Z,93.2
2017-09-23T06:53:59.503Z,93.3
2017-09-23T06:55:00.941Z,93.1
2017-09-23T06:56:02.409Z,93.3
2017-09-23T06:57:03.831Z,93.0
2017-09-23T06:58:06.040Z,93.0
2017-09-23T06:59:08.017Z,93.4
2017-09-23T07:00:09.545Z,93.0
2017-09-23T07:01:11.549Z,93.2
2017-09-23T07:02:12.998Z,93.8
2017-09-23T07:03:15.110Z,93.3
2017-09-23T07:04:16.531Z,93.5
2017-09-23T07:05:17.925Z,93.0
2017-09-23T07:06:20.063Z,93.8
2017-09-23T07:07:21.669Z,93.7
2017-09-23T07:08:23.120Z,93.8
2017-09-23T07:09:24.566Z,93.3
2017-09-23T07:10:25.990Z,93.3
2017-09-23T07:11:27.391Z,93.7
2017-09-23T07:12:28.766Z,93.8
2017-09-23T07:13:30.777Z,93.8
2017-09-23T07:14:32.407Z,93.2
2017-09-23T07:15:33.806Z,93.4
2017-09-23T07:16:35.213Z,93.6
2017-09-23T07:17:36.647Z,93.6
2017-09-23T07:18:38.050Z,93.6
2017-09-23T07:19:40.059Z,93.6
2017-09-23T07:20:41.635Z,93.3
2017-09-23T07:21:43.057Z,93.4
2017-09-23T07:22:44.539Z,92.9
2017-09-23T07:23:46.021Z,93.1
2017-09-23T07:24:47.463Z,93.3
2017-09-23T07:25:48.859Z,93.0
2017-09-23T07:26:50.299Z,93.4
2017-09-23T07:27:51.707Z,93.1
2017-09-23T07:28:53.933Z,93.1
2017-09-23T07:29:56.084Z,92.7
2017-09-23T07:30:57.525Z,92.4
2017-09-23T07:31:58.928Z,92.2
2017-09-23T07:33:00.738Z,91.9
2017-09-23T07:34:02.158Z,92.3
2017-09-23T07:35:03.584Z,92.2
2017-09-23T07:36:05.890Z,91.9
2017-09-23T07:37:08.004Z,92.2
2017-09-23T07:38:10.264Z,91.7
2017-09-23T07:39:11.992Z,91.7
2017-09-23T07:40:14.005Z,91.7
2017-09-23T07:41:15.796Z,91.8
2017-09-23T07:42:17.205Z,91.7
2017-09-23T07:43:18.673Z,91.0
2017-09-23T07:44:20.958Z,90.7
2017-09-23T07:45:22.608Z,90.3
2017-09-23T07:46:24.798Z,90.8
2017-09-23T07:47:26.327Z,90.8
2017-09-23T07:48:27.802Z,90.1
2017-09-23T07:49:29.756Z,90.5
2017-09-23T07:50:31.216Z,90.6
2017-09-23T07:51:32.627Z,91.1
2017-09-23T07:52:34.032Z,90.4
2017-09-23T07:53:35.779Z,90.0
2017-09-23T07:54:37.211Z,90.1
2017-09-23T07:55:38.616Z,89.3
2017-09-23T07:56:40.008Z,90.1
2017-09-23T07:57:42.093Z,90.3
2017-09-23T07:58:43.980Z,89.6
2017-09-23T07:59:46.192Z,89.5
2017-09-23T08:00:48.210Z,89.5
2017-09-23T08:01:49.696Z,88.9
2017-09-23T08:02:51.220Z,88.9
2017-09-23T08:03:52.605Z,88.9
2017-09-23T08:04:54.207Z,89.4
2017-09-23T08:05:55.642Z,89.4
2017-09-23T08:06:57.025Z,89.2
2017-09-23T08:07:58.467Z,88.5
2017-09-23T08:08:59.968Z,88.4
2017-09-23T08:10:01.473Z,88.3
2017-09-23T08:11:02.903Z,88.4
2017-09-23T08:12:04.832Z,88.0
2017-09-23T08:13:06.269Z,87.8
2017-09-23T08:14:07.853Z,88.3
2017-09-23T08:15:09.799Z,88.4
2017-09-23T08:16:11.919Z,89.1
2017-09-23T08:17:13.455Z,88.5
2017-09-23T08:18:14.897Z,88.7
2017-09-23T08:19:16.301Z,89.6
2017-09-23T08:20:17.714Z,89.3
2017-09-23T08:21:19.212Z,89.6
2017-09-23T08:22:20.703Z,89.2
2017-09-23T08:23:22.085Z,89.2
2017-09-23T08:24:24.263Z,89.9
2017-09-23T08:25:26.022Z,89.1
2017-09-23T08:26:27.445Z,89.6
2017-09-23T08:27:28.847Z,89.3
2017-09-23T08:29:11.884Z,89.3
2017-09-23T08:30:13.145Z,89.5
2017-09-23T08:31:14.698Z,88.4
2017-09-23T08:32:16.166Z,88.7
2017-09-23T08:33:17.574Z,88.5
2017-09-23T08:34:18.991Z,88.0
2017-09-23T08:35:20.388Z,88.7
2017-09-23T08:36:21.773Z,88.7
2017-09-23T08:37:23.154Z,87.9
2017-09-23T08:38:24.525Z,88.0
2017-09-23T08:39:25.903Z,87.4
2017-09-23T08:40:27.289Z,87.9
2017-09-23T08:41:29.185Z,87.9
2017-09-23T08:42:30.649Z,87.6
2017-09-23T08:43:32.047Z,87.5
2017-09-23T08:45:14.414Z,87.2
2017-09-23T08:46:15.818Z,87.6
2017-09-23T08:47:17.826Z,87.4
2017-09-23T08:48:19.160Z,87.6
2017-09-23T08:49:20.545Z,87.9
2017-09-23T08:50:21.921Z,87.9
2017-09-23T08:51:23.308Z,88.2
2017-09-23T08:52:24.697Z,87.2
2017-09-23T08:53:26.488Z,88.1
2017-09-23T08:54:28.089Z,87.4
2017-09-23T08:55:29.730Z,87.2
2017-09-23T08:56:31.439Z,86.7
2017-09-23T08:57:33.080Z,87.2
2017-09-23T08:58:34.515Z,86.8
2017-09-23T08:59:35.998Z,86.8
2017-09-23T09:00:37.412Z,86.6
2017-09-23T09:01:38.804Z,87.1
2017-09-23T09:02:40.257Z,87.4
2017-09-23T09:03:42.006Z,87.1
2017-09-23T09:04:43.449Z,86.7
2017-09-23T09:05:44.826Z,86.0
2017-09-23T09:06:46.216Z,86.6
2017-09-23T09:07:47.598Z,86.8
2017-09-23T09:08:48.986Z,87.4
2017-09-23T09:09:50.376Z,87.1
2017-09-23T09:10:51.760Z,87.2
2017-09-23T09:11:53.135Z,87.5
2017-09-23T09:12:54.552Z,87.2
2017-09-23T09:13:55.932Z,87.4
2017-09-23T09:14:57.335Z,87.9
2017-09-23T09:15:58.929Z,87.3
2017-09-23T09:17:00.536Z,87.3
2017-09-23T09:18:01.954Z,87.5
2017-09-23T09:19:03.332Z,87.3
2017-09-23T09:20:04.709Z,87.9
2017-09-23T09:21:06.221Z,87.2
2017-09-23T09:22:07.589Z,88.1
2017-09-23T09:23:08.984Z,88.4
2017-09-23T09:24:10.406Z,88.2
2017-09-23T09:25:11.857Z,88.4
2017-09-23T09:26:13.290Z,88.8
2017-09-23T09:27:15.054Z,87.8
2017-09-23T09:28:16.498Z,88.1
2017-09-23T09:29:17.891Z,88.5
2017-09-23T09:30:19.313Z,87.9
2017-09-23T09:31:21.030Z,88.5
2017-09-23T09:32:22.474Z,88.5
2017-09-23T09:34:04.845Z,88.5
2017-09-23T09:35:06.225Z,89.0
2017-09-23T09:36:07.605Z,89.2
2017-09-23T09:37:08.982Z,88.7
2017-09-23T09:38:10.361Z,88.8
2017-09-23T09:39:12.118Z,88.3
2017-09-23T09:40:13.628Z,88.3
2017-09-23T09:41:15.099Z,88.4
2017-09-23T09:42:16.503Z,88.3
2017-09-23T09:43:17.882Z,88.3
2017-09-23T09:44:19.260Z,88.1
2017-09-23T09:45:20.921Z,87.9
2017-09-23T09:46:22.355Z,88.2
2017-09-23T09:47:23.733Z,88.5
2017-09-23T09:48:25.274Z,88.5
2017-09-23T09:50:07.688Z,88.1
2017-09-23T09:51:09.066Z,88.5
2017-09-23T09:52:10.446Z,87.9
2017-09-23T09:53:11.829Z,87.8
2017-09-23T09:54:13.209Z,87.7
2017-09-23T09:55:14.585Z,86.9
2017-09-23T09:56:16.001Z,87.5
2017-09-23T09:57:17.385Z,87.4
2017-09-23T09:58:18.753Z,86.8
2017-09-23T09:59:20.137Z,87.1
2017-09-23T10:00:21.844Z,86.8
2017-09-23T10:01:23.276Z,86.7
2017-09-23T10:02:24.656Z,87.2
2017-09-23T10:03:26.039Z,86.6
2017-09-23T10:04:27.424Z,86.9
2017-09-23T10:06:09.824Z,87.6
2017-09-23T10:07:11.188Z,87.1
2017-09-23T10:08:12.568Z,88.0
2017-09-23T10:09:13.958Z,87.6
2017-09-23T10:10:15.439Z,87.5
2017-09-23T10:11:17.042Z,87.2
2017-09-23T10:12:18.737Z,87.3
2017-09-23T10:13:20.100Z,86.4
2017-09-23T10:14:21.662Z,87.0
2017-09-23T10:15:23.437Z,87.4
2017-09-23T10:16:25.135Z,87.6
2017-09-23T10:17:26.922Z,88.2
2017-09-23T10:18:28.358Z,87.8
2017-09-23T10:19:29.733Z,88.1
2017-09-23T10:20:31.113Z,87.1
2017-09-23T10:22:13.475Z,88.2
2017-09-23T10:23:14.853Z,87.2
2017-09-23T10:24:16.555Z,87.5
2017-09-23T10:25:18.005Z,87.6
2017-09-23T10:26:19.719Z,87.9
2017-09-23T10:27:21.554Z,88.2
2017-09-23T10:28:23.152Z,88.1
2017-09-23T10:29:24.745Z,87.9
2017-09-23T10:30:26.182Z,87.9
2017-09-23T10:31:27.595Z,88.1
2017-09-23T10:32:28.976Z,88.2
2017-09-23T10:33:30.357Z,88.3
2017-09-23T10:34:31.735Z,87.4
2017-09-23T10:35:33.129Z,88.3
2017-09-23T10:36:34.498Z,88.2
2017-09-23T10:38:16.857Z,88.3
2017-09-23T10:39:18.231Z,87.9
2017-09-23T10:40:19.609Z,87.8
2017-09-23T10:41:20.985Z,87.8
2017-09-23T10:42:22.372Z,87.6
2017-09-23T10:43:23.756Z,87.6
2017-09-23T10:44:25.137Z,87.9
2017-09-23T10:45:26.516Z,87.8
2017-09-23T10:46:27.905Z,87.4
2017-09-23T10:47:29.286Z,86.7
2017-09-23T10:48:30.666Z,87.2
2017-09-23T10:49:32.047Z,87.5
2017-09-23T10:50:33.428Z,87.5
2017-09-23T10:51:34.809Z,87.3
2017-09-23T10:52:36.204Z,86.8
2017-09-23T10:53:37.569Z,85.7
2017-09-23T10:54:38.943Z,86.1
2017-09-23T10:55:40.322Z,85.8
2017-09-23T10:56:41.700Z,85.7
2017-09-23T10:57:43.083Z,85.1
2017-09-23T10:58:44.460Z,86.0
2017-09-23T10:59:45.840Z,85.1
2017-09-23T11:00:47.228Z,84.9
2017-09-23T11:01:48.605Z,84.5
2017-09-23T11:02:49.986Z,83.8
2017-09-23T11:03:51.365Z,83.7
2017-09-23T11:04:53.104Z,83.7
2017-09-23T11:05:54.811Z,84.0
2017-09-23T11:06:56.623Z,83.8
2017-09-23T11:07:58.368Z,83.4
2017-09-23T11:08:59.789Z,83.4
2017-09-23T11:10:01.166Z,83.4
2017-09-23T11:11:02.596Z,83.2
2017-09-23T11:12:04.008Z,83.3
2017-09-23T11:13:05.392Z,83.6
2017-09-23T11:14:06.774Z,83.5
2017-09-23T11:15:08.311Z,82.6
2017-09-23T11:16:09.674Z,83.0
2017-09-23T11:17:11.056Z,83.4
2017-09-23T11:18:12.472Z,82.8
2017-09-23T11:19:14.013Z,83.0
2017-09-23T11:20:15.418Z,83.6
2017-09-23T11:21:16.813Z,83.5
2017-09-23T11:22:18.467Z,83.5
2017-09-23T11:23:20.106Z,83.5
2017-09-23T11:24:21.804Z,82.8
2017-09-23T11:25:23.428Z,82.6
2017-09-23T11:26:25.113Z,82.7
2017-09-23T11:27:26.543Z,82.5
2017-09-23T11:28:27.938Z,83.0
2017-09-23T11:29:29.317Z,82.2
2017-09-23T11:30:30.707Z,82.3
2017-09-23T11:31:32.152Z,82.4
2017-09-23T11:32:33.560Z,81.6
2017-09-23T11:33:34.943Z,82.5
2017-09-23T11:34:36.331Z,81.8
2017-09-23T11:35:37.862Z,81.6
2017-09-23T11:36:39.392Z,82.0
2017-09-23T11:37:40.836Z,81.8
2017-09-23T11:38:42.231Z,81.9
2017-09-23T11:39:43.610Z,81.8
2017-09-23T11:40:44.997Z,81.8
2017-09-23T11:41:46.432Z,80.8
2017-09-23T11:42:48.161Z,81.5
2017-09-23T11:43:49.600Z,81.8
2017-09-23T11:44:50.980Z,81.4
2017-09-23T11:45:52.471Z,80.9
2017-09-23T11:46:54.275Z,81.1
2017-09-23T11:47:55.949Z,80.6
2017-09-23T11:48:57.358Z,80.8
2017-09-23T11:49:58.762Z,80.9
2017-09-23T11:51:00.142Z,80.5
2017-09-23T11:52:01.544Z,80.9
2017-09-23T11:53:03.161Z,80.3
2017-09-23T11:54:04.550Z,80.4
2017-09-23T11:55:06.062Z,81.1
2017-09-23T11:56:07.451Z,80.3
2017-09-23T11:57:08.832Z,80.9
2017-09-23T11:58:10.370Z,81.2
2017-09-23T11:59:11.782Z,81.5
2017-09-23T12:00:13.223Z,81.8
2017-09-23T12:01:14.585Z,81.8
2017-09-23T12:02:15.980Z,81.3
2017-09-23T12:03:17.392Z,81.4
2017-09-23T12:04:18.775Z,81.5
2017-09-23T12:05:20.167Z,82.4
2017-09-23T12:06:21.554Z,81.9
2017-09-23T12:07:22.935Z,81.3
2017-09-23T12:08:24.319Z,81.6
2017-09-23T12:09:25.726Z,81.7
2017-09-23T12:10:27.191Z,81.5
2017-09-23T12:11:28.583Z,81.6
2017-09-23T12:12:30.008Z,81.3
2017-09-23T12:13:31.387Z,82.0
2017-09-23T12:14:32.779Z,81.3
2017-09-23T12:15:34.161Z,81.6
2017-09-23T12:16:35.779Z,81.5
2017-09-23T12:17:37.280Z,81.6
2017-09-23T12:18:38.657Z,81.4
2017-09-23T12:19:40.039Z,81.6
2017-09-23T12:20:41.417Z,81.4
2017-09-23T12:21:42.799Z,81.6
2017-09-23T12:22:44.182Z,80.9
2017-09-23T12:23:45.564Z,81.6
2017-09-23T12:24:46.946Z,81.7
2017-09-23T12:25:48.329Z,80.9
2017-09-23T12:26:49.710Z,79.3
2017-09-23T12:27:51.093Z,78.8
2017-09-23T12:28:52.477Z,77.9
2017-09-23T12:29:53.859Z,78.1
2017-09-23T12:30:55.284Z,77.0
2017-09-23T12:31:56.830Z,76.9
2017-09-23T12:32:58.273Z,76.8
2017-09-23T12:33:59.679Z,76.3
2017-09-23T12:35:01.063Z,74.3
2017-09-23T12:36:02.456Z,75.0
2017-09-23T12:37:03.844Z,74.8
2017-09-23T12:38:05.235Z,74.2
2017-09-23T12:39:06.615Z,74.0
2017-09-23T12:40:08.002Z,73.1
2017-09-23T12:41:09.381Z,72.8
2017-09-23T12:42:10.773Z,71.9
2017-09-23T12:43:12.173Z,71.5
2017-09-23T12:44:13.556Z,71.1
2017-09-23T12:45:14.979Z,70.2
2017-09-23T12:46:16.381Z,69.5
2017-09-23T12:47:17.780Z,67.9
2017-09-23T12:48:19.171Z,66.7
2017-09-23T12:49:20.556Z,67.3
2017-09-23T12:50:21.943Z,66.4
2017-09-23T12:51:23.333Z,65.8
2017-09-23T12:52:24.801Z,65.0
2017-09-23T12:53:26.250Z,65.0
2017-09-23T12:54:27.703Z,64.0
2017-09-23T12:55:29.112Z,63.6
2017-09-23T12:56:30.512Z,62.5
2017-09-23T12:57:32.222Z,62.4
2017-09-23T12:58:33.935Z,62.6
2017-09-23T12:59:35.380Z,63.0
2017-09-23T13:00:36.821Z,62.2
2017-09-23T13:01:38.182Z,63.1
2017-09-23T13:02:39.602Z,64.0
2017-09-23T13:03:41.002Z,65.6
2017-09-23T13:04:42.398Z,66.5
2017-09-23T13:05:43.787Z,66.7
2017-09-23T13:06:45.211Z,67.0
2017-09-23T13:07:46.607Z,67.3
2017-09-23T13:08:48.001Z,67.4
2017-09-23T13:09:49.459Z,67.4
2017-09-23T13:10:51.094Z,67.4
2017-09-23T13:12:32.016Z,67.9
2017-09-23T13:13:33.375Z,67.9
2017-09-23T13:14:34.760Z,68.3
2017-09-23T13:15:36.144Z,69.3
2017-09-23T13:16:37.712Z,69.1
2017-09-23T13:17:39.074Z,68.1
2017-09-23T13:18:40.456Z,68.6
2017-09-23T13:19:41.883Z,68.2
2017-09-23T13:20:43.246Z,67.7
2017-09-23T13:21:44.630Z,68.0
2017-09-23T13:22:46.011Z,68.8
2017-09-23T13:23:47.397Z,67.7
2017-09-23T13:24:48.781Z,68.4
2017-09-23T13:25:50.163Z,68.7
2017-09-23T13:26:51.599Z,69.8
2017-09-23T13:27:52.993Z,69.2
2017-09-23T13:28:54.376Z,69.4
2017-09-23T13:29:55.758Z,69.0
2017-09-23T13:30:57.140Z,69.0
2017-09-23T13:31:58.523Z,68.9
2017-09-23T13:32:59.905Z,68.7
2017-09-23T13:34:01.289Z,69.3
2017-09-23T13:35:02.774Z,69.7
2017-09-23T13:36:04.200Z,70.3
2017-09-23T13:37:05.723Z,70.8
2017-09-23T13:38:07.335Z,71.5
2017-09-23T13:39:08.783Z,71.6
2017-09-23T13:40:10.215Z,71.7
2017-09-23T13:41:11.609Z,71.7
2017-09-23T13:42:13.002Z,71.9
2017-09-23T13:43:55.379Z,72.1
2017-09-23T13:44:56.758Z,71.9
2017-09-23T13:45:58.138Z,72.3
2017-09-23T13:46:59.522Z,72.8